sensor_id;sensor_type;location;lat;lon;timestamp;pressure;altitude;pressure_sealevel;temperature;humidity
42591;BME280;28218;53.342;-6.216;2023-09-18T00:00:51;99533.88;;;15.72;100.00
42591;BME280;28218;53.342;-6.216;2023-09-18T00:03:20;99537.34;;;15.73;100.00
42591;BME280;28218;53.342;-6.216;2023-09-18T00:05:52;99533.41;;;15.75;100.00
42591;BME280;28218;53.342;-6.216;2023-09-18T00:08:20;99533.41;;;15.75;100.00
42591;BME280;28218;53.342;-6.216;2023-09-18T00:10:52;99528.34;;;15.74;100.00
42591;BME280;28218;53.342;-6.216;2023-09-18T00:13:22;99525.91;;;15.72;100.00
42591;BME280;28218;53.342;-6.216;2023-09-18T00:15:54;99523.25;;;15.72;100.00
42591;BME280;28218;53.342;-6.216;2023-09-18T00:18:23;99519.81;;;15.72;100.00
42591;BME280;28218;53.342;-6.216;2023-09-18T00:20:51;99524.06;;;15.73;100.00
42591;BME280;28218;53.342;-6.216;2023-09-18T00:23:20;99517.94;;;15.72;100.00
42591;BME280;28218;53.342;-6.216;2023-09-18T00:25:48;99520.38;;;15.74;100.00
42591;BME280;28218;53.342;-6.216;2023-09-18T00:28:16;99514.25;;;15.73;100.00
42591;BME280;28218;53.342;-6.216;2023-09-18T00:30:49;99514.25;;;15.73;100.00
42591;BME280;28218;53.342;-6.216;2023-09-18T00:33:17;99511.84;;;15.72;100.00
42591;BME280;28218;53.342;-6.216;2023-09-18T00:35:47;99511.34;;;15.75;100.00
42591;BME280;28218;53.342;-6.216;2023-09-18T00:38:16;99508.94;;;15.73;100.00
42591;BME280;28218;53.342;-6.216;2023-09-18T00:40:44;99502.47;;;15.69;100.00
42591;BME280;28218;53.342;-6.216;2023-09-18T00:43:13;99504.31;;;15.69;100.00
42591;BME280;28218;53.342;-6.216;2023-09-18T00:45:44;99500.06;;;15.68;100.00
42591;BME280;28218;53.342;-6.216;2023-09-18T00:48:14;99493.94;;;15.67;100.00
42591;BME280;28218;53.342;-6.216;2023-09-18T00:50:44;99496.00;;;15.65;100.00
42591;BME280;28218;53.342;-6.216;2023-09-18T00:53:17;99488.03;;;15.65;100.00
42591;BME280;28218;53.342;-6.216;2023-09-18T00:55:48;99480.31;;;15.64;100.00
42591;BME280;28218;53.342;-6.216;2023-09-18T00:58:17;99480.31;;;15.64;100.00
42591;BME280;28218;53.342;-6.216;2023-09-18T01:00:46;99475.00;;;15.64;100.00
42591;BME280;28218;53.342;-6.216;2023-09-18T01:03:19;99468.50;;;15.59;100.00
42591;BME280;28218;53.342;-6.216;2023-09-18T01:05:49;99471.97;;;15.60;100.00
42591;BME280;28218;53.342;-6.216;2023-09-18T01:08:17;99462.94;;;15.61;100.00
42591;BME280;28218;53.342;-6.216;2023-09-18T01:10:50;99459.97;;;15.57;100.00
42591;BME280;28218;53.342;-6.216;2023-09-18T01:13:24;99456.28;;;15.58;100.00
42591;BME280;28218;53.342;-6.216;2023-09-18T01:16:02;99452.81;;;15.58;100.00
42591;BME280;28218;53.342;-6.216;2023-09-18T01:18:35;99452.00;;;15.57;100.00
42591;BME280;28218;53.342;-6.216;2023-09-18T01:21:03;99443.44;;;15.55;100.00
42591;BME280;28218;53.342;-6.216;2023-09-18T01:23:33;99434.91;;;15.53;100.00
42591;BME280;28218;53.342;-6.216;2023-09-18T01:26:01;99423.50;;;15.53;100.00
42591;BME280;28218;53.342;-6.216;2023-09-18T01:28:29;99420.00;;;15.52;100.00
42591;BME280;28218;53.342;-6.216;2023-09-18T01:30:58;99421.84;;;15.52;100.00
42591;BME280;28218;53.342;-6.216;2023-09-18T01:33:27;99422.66;;;15.52;100.00
42591;BME280;28218;53.342;-6.216;2023-09-18T01:35:57;99411.47;;;15.50;100.00
42591;BME280;28218;53.342;-6.216;2023-09-18T01:38:26;99412.53;;;15.49;100.00
42591;BME280;28218;53.342;-6.216;2023-09-18T01:40:56;99413.88;;;15.52;100.00
42591;BME280;28218;53.342;-6.216;2023-09-18T01:43:25;99401.91;;;15.49;100.00
42591;BME280;28218;53.342;-6.216;2023-09-18T01:45:55;99398.44;;;15.49;100.00
42591;BME280;28218;53.342;-6.216;2023-09-18T01:48:23;99390.47;;;15.49;100.00
42591;BME280;28218;53.342;-6.216;2023-09-18T01:50:51;99403.50;;;15.50;100.00
42591;BME280;28218;53.342;-6.216;2023-09-18T01:53:19;99396.59;;;15.49;100.00
42591;BME280;28218;53.342;-6.216;2023-09-18T01:55:48;99399.81;;;15.51;100.00
42591;BME280;28218;53.342;-6.216;2023-09-18T01:58:17;99392.66;;;15.52;100.00
42591;BME280;28218;53.342;-6.216;2023-09-18T02:00:46;99390.00;;;15.52;100.00
42591;BME280;28218;53.342;-6.216;2023-09-18T02:03:14;99390.81;;;15.52;100.00
42591;BME280;28218;53.342;-6.216;2023-09-18T02:06:05;99385.72;;;15.51;100.00
42591;BME280;28218;53.342;-6.216;2023-09-18T02:08:33;99386.78;;;15.50;100.00
42591;BME280;28218;53.342;-6.216;2023-09-18T02:11:02;99392.91;;;15.50;100.00
42591;BME280;28218;53.342;-6.216;2023-09-18T02:13:32;99384.59;;;15.47;100.00
42591;BME280;28218;53.342;-6.216;2023-09-18T02:16:01;99384.25;;;15.43;100.00
42591;BME280;28218;53.342;-6.216;2023-09-18T02:18:30;99375.25;;;15.44;100.00
42591;BME280;28218;53.342;-6.216;2023-09-18T02:20:58;99378.72;;;15.45;100.00
42591;BME280;28218;53.342;-6.216;2023-09-18T02:23:26;99374.44;;;15.44;100.00
42591;BME280;28218;53.342;-6.216;2023-09-18T02:25:58;99377.09;;;15.44;100.00
42591;BME280;28218;53.342;-6.216;2023-09-18T02:28:27;99370.16;;;15.43;100.00
42591;BME280;28218;53.342;-6.216;2023-09-18T02:30:56;99368.00;;;15.40;100.00
42591;BME280;28218;53.342;-6.216;2023-09-18T02:33:24;99367.75;;;15.41;100.00
42591;BME280;28218;53.342;-6.216;2023-09-18T02:35:53;99361.88;;;15.39;100.00
42591;BME280;28218;53.342;-6.216;2023-09-18T02:38:21;99358.41;;;15.39;100.00
42591;BME280;28218;53.342;-6.216;2023-09-18T02:40:49;99361.63;;;15.41;100.00
42591;BME280;28218;53.342;-6.216;2023-09-18T02:43:17;99357.59;;;15.38;100.00
42591;BME280;28218;53.342;-6.216;2023-09-18T02:45:46;99355.16;;;15.37;100.00
42591;BME280;28218;53.342;-6.216;2023-09-18T02:48:15;99361.28;;;15.37;100.00
42591;BME280;28218;53.342;-6.216;2023-09-18T02:50:44;99350.66;;;15.37;100.00
42591;BME280;28218;53.342;-6.216;2023-09-18T02:53:18;99352.88;;;15.40;100.00
42591;BME280;28218;53.342;-6.216;2023-09-18T02:55:47;99342.25;;;15.40;100.00
42591;BME280;28218;53.342;-6.216;2023-09-18T02:58:15;99349.41;;;15.40;100.00
42591;BME280;28218;53.342;-6.216;2023-09-18T03:00:47;99346.97;;;15.38;100.00
42591;BME280;28218;53.342;-6.216;2023-09-18T03:03:17;99345.16;;;15.39;100.00
42591;BME280;28218;53.342;-6.216;2023-09-18T03:05:45;99337.19;;;15.39;100.00
42591;BME280;28218;53.342;-6.216;2023-09-18T03:08:14;99338.00;;;15.39;100.00
42591;BME280;28218;53.342;-6.216;2023-09-18T03:10:44;99335.34;;;15.39;100.00
42591;BME280;28218;53.342;-6.216;2023-09-18T03:13:14;99338.00;;;15.39;100.00
42591;BME280;28218;53.342;-6.216;2023-09-18T03:15:45;99331.03;;;15.38;100.00
42591;BME280;28218;53.342;-6.216;2023-09-18T03:18:15;99332.56;;;15.34;100.00
42591;BME280;28218;53.342;-6.216;2023-09-18T03:20:44;99335.22;;;15.34;100.00
42591;BME280;28218;53.342;-6.216;2023-09-18T03:23:12;99334.38;;;15.33;100.00
42591;BME280;28218;53.342;-6.216;2023-09-18T03:25:41;99329.91;;;15.34;100.00
42591;BME280;28218;53.342;-6.216;2023-09-18T03:28:17;99329.91;;;15.34;100.00
42591;BME280;28218;53.342;-6.216;2023-09-18T03:30:46;99337.03;;;15.33;100.00
42591;BME280;28218;53.342;-6.216;2023-09-18T03:33:14;99323.66;;;15.28;100.00
42591;BME280;28218;53.342;-6.216;2023-09-18T03:35:47;99325.53;;;15.28;100.00
42591;BME280;28218;53.342;-6.216;2023-09-18T03:38:16;99326.00;;;15.25;100.00
42591;BME280;28218;53.342;-6.216;2023-09-18T03:40:45;99322.53;;;15.24;100.00
42591;BME280;28218;53.342;-6.216;2023-09-18T03:43:13;99326.47;;;15.22;100.00
42591;BME280;28218;53.342;-6.216;2023-09-18T03:45:42;99329.09;;;15.22;100.00
42591;BME280;28218;53.342;-6.216;2023-09-18T03:48:10;99319.53;;;15.21;100.00
42591;BME280;28218;53.342;-6.216;2023-09-18T03:50:39;99315.84;;;15.22;100.00
42591;BME280;28218;53.342;-6.216;2023-09-18T03:53:10;99318.25;;;15.23;100.00
42591;BME280;28218;53.342;-6.216;2023-09-18T03:55:38;99308.13;;;15.20;100.00
42591;BME280;28218;53.342;-6.216;2023-09-18T03:58:06;99307.78;;;15.17;100.00
42591;BME280;28218;53.342;-6.216;2023-09-18T04:00:35;99301.88;;;15.15;100.00
42591;BME280;28218;53.342;-6.216;2023-09-18T04:03:03;99306.16;;;15.16;100.00
42591;BME280;28218;53.342;-6.216;2023-09-18T04:05:32;99311.94;;;15.13;100.00
42591;BME280;28218;53.342;-6.216;2023-09-18T04:08:00;99309.41;;;15.06;100.00
42591;BME280;28218;53.342;-6.216;2023-09-18T04:10:30;99304.91;;;15.06;100.00
42591;BME280;28218;53.342;-6.216;2023-09-18T04:12:59;99299.00;;;15.04;100.00
42591;BME280;28218;53.342;-6.216;2023-09-18T04:15:29;99297.41;;;15.03;100.00
42591;BME280;28218;53.342;-6.216;2023-09-18T04:17:58;99289.34;;;14.98;100.00
42591;BME280;28218;53.342;-6.216;2023-09-18T04:20:26;99290.59;;;14.96;100.00
42591;BME280;28218;53.342;-6.216;2023-09-18T04:23:19;99284.28;;;14.97;100.00
42591;BME280;28218;53.342;-6.216;2023-09-18T04:25:51;99286.34;;;14.95;100.00
42591;BME280;28218;53.342;-6.216;2023-09-18T04:28:20;99285.75;;;14.93;100.00
42591;BME280;28218;53.342;-6.216;2023-09-18T04:30:49;99285.06;;;14.86;100.00
42591;BME280;28218;53.342;-6.216;2023-09-18T04:33:17;99288.19;;;14.82;100.00
42591;BME280;28218;53.342;-6.216;2023-09-18T04:35:46;99278.59;;;14.81;100.00
42591;BME280;28218;53.342;-6.216;2023-09-18T04:38:14;99271.00;;;14.73;100.00
42591;BME280;28218;53.342;-6.216;2023-09-18T04:40:43;99271.91;;;14.67;100.00
42591;BME280;28218;53.342;-6.216;2023-09-18T04:43:14;99262.34;;;14.66;100.00
42591;BME280;28218;53.342;-6.216;2023-09-18T04:45:42;99265.44;;;14.63;100.00
42591;BME280;28218;53.342;-6.216;2023-09-18T04:48:10;99267.44;;;14.56;100.00
42591;BME280;28218;53.342;-6.216;2023-09-18T04:50:39;99266.03;;;14.53;100.00
42591;BME280;28218;53.342;-6.216;2023-09-18T04:53:07;99273.41;;;14.51;100.00
42591;BME280;28218;53.342;-6.216;2023-09-18T04:55:35;99272.84;;;14.49;100.00
42591;BME280;28218;53.342;-6.216;2023-09-18T04:58:05;99269.56;;;14.47;100.00
42591;BME280;28218;53.342;-6.216;2023-09-18T05:00:34;99260.00;;;14.46;100.00
42591;BME280;28218;53.342;-6.216;2023-09-18T05:03:03;99255.16;;;14.43;100.00
42591;BME280;28218;53.342;-6.216;2023-09-18T05:05:33;99260.94;;;14.40;100.00
42591;BME280;28218;53.342;-6.216;2023-09-18T05:08:02;99268.28;;;14.38;100.00
42591;BME280;28218;53.342;-6.216;2023-09-18T05:10:31;99263.66;;;14.33;100.00
42591;BME280;28218;53.342;-6.216;2023-09-18T05:13:00;99258.59;;;14.32;100.00
42591;BME280;28218;53.342;-6.216;2023-09-18T05:15:29;99263.91;;;14.32;100.00
42591;BME280;28218;53.342;-6.216;2023-09-18T05:18:00;99254.78;;;14.28;100.00
42591;BME280;28218;53.342;-6.216;2023-09-18T05:20:29;99255.47;;;14.23;100.00
42591;BME280;28218;53.342;-6.216;2023-09-18T05:22:58;99255.72;;;14.22;100.00
42591;BME280;28218;53.342;-6.216;2023-09-18T05:25:29;99263.53;;;14.17;100.00
42591;BME280;28218;53.342;-6.216;2023-09-18T05:28:00;99263.53;;;14.17;100.00
42591;BME280;28218;53.342;-6.216;2023-09-18T05:30:29;99262.13;;;14.14;100.00
42591;BME280;28218;53.342;-6.216;2023-09-18T05:33:03;99262.56;;;14.11;100.00
42591;BME280;28218;53.342;-6.216;2023-09-18T05:35:32;99268.34;;;14.08;100.00
42591;BME280;28218;53.342;-6.216;2023-09-18T05:38:01;99267.97;;;14.04;100.00
42591;BME280;28218;53.342;-6.216;2023-09-18T05:40:29;99278.00;;;14.02;100.00
42591;BME280;28218;53.342;-6.216;2023-09-18T05:42:58;99283.88;;;14.04;100.00
42591;BME280;28218;53.342;-6.216;2023-09-18T05:45:27;99286.09;;;14.07;100.00
42591;BME280;28218;53.342;-6.216;2023-09-18T05:47:55;99285.03;;;14.09;100.00
42591;BME280;28218;53.342;-6.216;2023-09-18T05:50:33;99290.69;;;14.12;100.00
42591;BME280;28218;53.342;-6.216;2023-09-18T05:53:03;99283.75;;;14.11;100.00
42591;BME280;28218;53.342;-6.216;2023-09-18T05:55:32;99297.25;;;14.10;100.00
42591;BME280;28218;53.342;-6.216;2023-09-18T05:58:01;99300.00;;;14.03;100.00
42591;BME280;28218;53.342;-6.216;2023-09-18T06:00:31;99287.56;;;14.03;100.00
42591;BME280;28218;53.342;-6.216;2023-09-18T06:03:00;99286.97;;;14.01;100.00
42591;BME280;28218;53.342;-6.216;2023-09-18T06:05:28;99289.28;;;13.98;100.00
42591;BME280;28218;53.342;-6.216;2023-09-18T06:08:00;99273.69;;;13.90;100.00
42591;BME280;28218;53.342;-6.216;2023-09-18T06:10:28;99288.19;;;13.87;100.00
42591;BME280;28218;53.342;-6.216;2023-09-18T06:12:56;99286.56;;;13.86;100.00
42591;BME280;28218;53.342;-6.216;2023-09-18T06:15:31;99284.59;;;13.81;100.00
42591;BME280;28218;53.342;-6.216;2023-09-18T06:17:59;99299.09;;;13.79;100.00
42591;BME280;28218;53.342;-6.216;2023-09-18T06:20:28;99292.41;;;13.76;100.00
42591;BME280;28218;53.342;-6.216;2023-09-18T06:22:56;99292.41;;;13.76;100.00
42591;BME280;28218;53.342;-6.216;2023-09-18T06:25:26;99291.97;;;13.79;100.00
42591;BME280;28218;53.342;-6.216;2023-09-18T06:27:54;99294.25;;;13.76;100.00
42591;BME280;28218;53.342;-6.216;2023-09-18T06:30:22;99309.09;;;13.77;100.00
42591;BME280;28218;53.342;-6.216;2023-09-18T06:32:50;99321.53;;;13.76;100.00
42591;BME280;28218;53.342;-6.216;2023-09-18T06:35:21;99322.94;;;13.79;100.00
42591;BME280;28218;53.342;-6.216;2023-09-18T06:37:49;99337.16;;;13.78;100.00
42591;BME280;28218;53.342;-6.216;2023-09-18T06:40:17;99336.38;;;13.77;100.00
42591;BME280;28218;53.342;-6.216;2023-09-18T06:42:47;99345.56;;;13.75;100.00
42591;BME280;28218;53.342;-6.216;2023-09-18T06:45:15;99347.41;;;13.74;100.00
42591;BME280;28218;53.342;-6.216;2023-09-18T06:47:43;99363.31;;;13.74;100.00
42591;BME280;28218;53.342;-6.216;2023-09-18T06:50:12;99368.22;;;13.71;100.00
42591;BME280;28218;53.342;-6.216;2023-09-18T06:52:40;99375.94;;;13.72;100.00
42591;BME280;28218;53.342;-6.216;2023-09-18T06:55:09;99379.19;;;13.74;100.00
42591;BME280;28218;53.342;-6.216;2023-09-18T06:57:37;99399.56;;;13.74;100.00
42591;BME280;28218;53.342;-6.216;2023-09-18T07:00:08;99395.50;;;13.71;100.00
42591;BME280;28218;53.342;-6.216;2023-09-18T07:02:36;99406.31;;;13.70;100.00
42591;BME280;28218;53.342;-6.216;2023-09-18T07:05:05;99409.53;;;13.72;100.00
42591;BME280;28218;53.342;-6.216;2023-09-18T07:07:34;99413.78;;;13.73;100.00
42591;BME280;28218;53.342;-6.216;2023-09-18T07:10:02;99428.06;;;13.72;100.00
42591;BME280;28218;53.342;-6.216;2023-09-18T07:12:31;99423.16;;;13.75;100.00
42591;BME280;28218;53.342;-6.216;2023-09-18T07:15:00;99423.16;;;13.75;100.00
42591;BME280;28218;53.342;-6.216;2023-09-18T07:17:33;99417.25;;;13.73;100.00
42591;BME280;28218;53.342;-6.216;2023-09-18T07:20:03;99418.66;;;13.76;100.00
42591;BME280;28218;53.342;-6.216;2023-09-18T07:22:46;99409.09;;;13.75;100.00
42591;BME280;28218;53.342;-6.216;2023-09-18T07:25:14;99414.41;;;13.75;100.00
42591;BME280;28218;53.342;-6.216;2023-09-18T07:27:43;99413.00;;;13.72;100.00
42591;BME280;28218;53.342;-6.216;2023-09-18T07:30:13;99415.88;;;13.71;100.00
42591;BME280;28218;53.342;-6.216;2023-09-18T07:32:44;99421.75;;;13.73;100.00
42591;BME280;28218;53.342;-6.216;2023-09-18T07:35:13;99423.56;;;13.72;100.00
42591;BME280;28218;53.342;-6.216;2023-09-18T07:37:43;99437.63;;;13.73;100.00
42591;BME280;28218;53.342;-6.216;2023-09-18T07:40:16;99440.66;;;13.76;100.00
42591;BME280;28218;53.342;-6.216;2023-09-18T07:42:44;99452.84;;;13.77;100.00
42591;BME280;28218;53.342;-6.216;2023-09-18T07:45:13;99449.03;;;13.73;100.00
42591;BME280;28218;53.342;-6.216;2023-09-18T07:47:41;99454.13;;;13.75;100.00
42591;BME280;28218;53.342;-6.216;2023-09-18T07:50:11;99457.72;;;13.80;100.00
42591;BME280;28218;53.342;-6.216;2023-09-18T07:52:39;99463.81;;;13.81;100.00
42591;BME280;28218;53.342;-6.216;2023-09-18T07:55:08;99470.16;;;13.80;100.00
42591;BME280;28218;53.342;-6.216;2023-09-18T07:57:36;99476.69;;;13.77;100.00
42591;BME280;28218;53.342;-6.216;2023-09-18T08:00:06;99477.47;;;13.78;100.00
42591;BME280;28218;53.342;-6.216;2023-09-18T08:02:39;99482.13;;;13.82;100.00
42591;BME280;28218;53.342;-6.216;2023-09-18T08:05:11;99481.47;;;13.87;100.00
42591;BME280;28218;53.342;-6.216;2023-09-18T08:07:39;99498.25;;;13.99;100.00
42591;BME280;28218;53.342;-6.216;2023-09-18T08:10:08;99499.44;;;14.03;100.00
42591;BME280;28218;53.342;-6.216;2023-09-18T08:12:36;99503.25;;;14.07;100.00
42591;BME280;28218;53.342;-6.216;2023-09-18T08:15:06;99495.59;;;14.18;100.00
42591;BME280;28218;53.342;-6.216;2023-09-18T08:17:35;99501.19;;;14.28;100.00
42591;BME280;28218;53.342;-6.216;2023-09-18T08:20:04;99494.84;;;14.29;100.00
42591;BME280;28218;53.342;-6.216;2023-09-18T08:22:40;99482.34;;;14.36;100.00
42591;BME280;28218;53.342;-6.216;2023-09-18T08:25:09;99489.53;;;14.47;100.00
42591;BME280;28218;53.342;-6.216;2023-09-18T08:27:38;99489.03;;;14.57;100.00
42591;BME280;28218;53.342;-6.216;2023-09-18T08:30:09;99488.28;;;14.68;100.00
42591;BME280;28218;53.342;-6.216;2023-09-18T08:32:38;99490.72;;;14.70;100.00
42591;BME280;28218;53.342;-6.216;2023-09-18T08:35:07;99483.94;;;14.74;100.00
42591;BME280;28218;53.342;-6.216;2023-09-18T08:37:36;99487.06;;;14.82;100.00
42591;BME280;28218;53.342;-6.216;2023-09-18T08:40:07;99489.63;;;14.89;100.00
42591;BME280;28218;53.342;-6.216;2023-09-18T08:42:39;99497.72;;;14.94;100.00
42591;BME280;28218;53.342;-6.216;2023-09-18T08:45:09;99497.84;;;14.99;100.00
42591;BME280;28218;53.342;-6.216;2023-09-18T08:47:39;99500.97;;;15.08;100.00
42591;BME280;28218;53.342;-6.216;2023-09-18T08:50:09;99507.34;;;15.19;100.00
42591;BME280;28218;53.342;-6.216;2023-09-18T08:52:38;99506.78;;;15.28;100.00
42591;BME280;28218;53.342;-6.216;2023-09-18T08:55:08;99522.03;;;15.33;100.00
42591;BME280;28218;53.342;-6.216;2023-09-18T08:57:38;99521.13;;;15.39;100.00
42591;BME280;28218;53.342;-6.216;2023-09-18T09:00:08;99544.28;;;15.32;100.00
42591;BME280;28218;53.342;-6.216;2023-09-18T09:02:38;99551.50;;;15.43;100.00
42591;BME280;28218;53.342;-6.216;2023-09-18T09:05:07;99571.81;;;15.49;100.00
42591;BME280;28218;53.342;-6.216;2023-09-18T09:07:35;99593.16;;;15.54;100.00
42591;BME280;28218;53.342;-6.216;2023-09-18T09:10:03;99617.97;;;15.48;100.00
42591;BME280;28218;53.342;-6.216;2023-09-18T09:12:54;99621.03;;;15.64;100.00
42591;BME280;28218;53.342;-6.216;2023-09-18T09:15:27;99629.56;;;15.66;100.00
42591;BME280;28218;53.342;-6.216;2023-09-18T09:18:04;99644.94;;;15.75;100.00
42591;BME280;28218;53.342;-6.216;2023-09-18T09:20:33;99634.94;;;15.89;100.00
42591;BME280;28218;53.342;-6.216;2023-09-18T09:23:05;99635.41;;;15.98;100.00
42591;BME280;28218;53.342;-6.216;2023-09-18T09:25:34;99631.81;;;16.04;100.00
42591;BME280;28218;53.342;-6.216;2023-09-18T09:28:06;99640.25;;;16.13;100.00
42591;BME280;28218;53.342;-6.216;2023-09-18T09:30:35;99645.47;;;16.19;100.00
42591;BME280;28218;53.342;-6.216;2023-09-18T09:33:05;99652.75;;;16.24;100.00
42591;BME280;28218;53.342;-6.216;2023-09-18T09:35:35;99661.16;;;16.32;100.00
42591;BME280;28218;53.342;-6.216;2023-09-18T09:38:08;99665.59;;;16.39;100.00
42591;BME280;28218;53.342;-6.216;2023-09-18T09:40:39;99677.25;;;16.38;100.00
42591;BME280;28218;53.342;-6.216;2023-09-18T09:43:11;99693.78;;;16.40;100.00
42591;BME280;28218;53.342;-6.216;2023-09-18T09:45:41;99692.63;;;16.47;100.00
42591;BME280;28218;53.342;-6.216;2023-09-18T09:48:10;99694.38;;;16.53;100.00
42591;BME280;28218;53.342;-6.216;2023-09-18T09:50:44;99704.53;;;16.56;100.00
42591;BME280;28218;53.342;-6.216;2023-09-18T09:53:14;99712.97;;;16.65;100.00
42591;BME280;28218;53.342;-6.216;2023-09-18T09:55:42;99709.84;;;16.68;100.00
42591;BME280;28218;53.342;-6.216;2023-09-18T09:58:12;99710.34;;;16.77;100.00
42591;BME280;28218;53.342;-6.216;2023-09-18T10:00:43;99725.84;;;16.80;100.00
42591;BME280;28218;53.342;-6.216;2023-09-18T10:03:16;99745.16;;;16.75;100.00
42591;BME280;28218;53.342;-6.216;2023-09-18T10:05:46;99762.56;;;16.59;100.00
42591;BME280;28218;53.342;-6.216;2023-09-18T10:08:17;99784.47;;;16.73;100.00
42591;BME280;28218;53.342;-6.216;2023-09-18T10:10:48;99779.03;;;16.80;100.00
42591;BME280;28218;53.342;-6.216;2023-09-18T10:13:19;99789.31;;;16.88;100.00
42591;BME280;28218;53.342;-6.216;2023-09-18T10:15:50;99798.00;;;16.95;100.00
42591;BME280;28218;53.342;-6.216;2023-09-18T10:18:26;99802.84;;;17.10;100.00
42591;BME280;28218;53.342;-6.216;2023-09-18T10:21:01;99798.78;;;17.19;100.00
42591;BME280;28218;53.342;-6.216;2023-09-18T10:23:46;99824.97;;;17.22;100.00
42591;BME280;28218;53.342;-6.216;2023-09-18T10:26:22;99836.28;;;17.29;100.00
42591;BME280;28218;53.342;-6.216;2023-09-18T10:28:54;99835.34;;;17.35;100.00
42591;BME280;28218;53.342;-6.216;2023-09-18T10:31:26;99833.13;;;17.44;100.00
42591;BME280;28218;53.342;-6.216;2023-09-18T10:33:56;99843.97;;;17.54;100.00
42591;BME280;28218;53.342;-6.216;2023-09-18T10:36:26;99848.28;;;17.55;100.00
42591;BME280;28218;53.342;-6.216;2023-09-18T10:38:55;99840.06;;;17.45;100.00
42591;BME280;28218;53.342;-6.216;2023-09-18T10:41:26;99839.25;;;17.56;100.00
42591;BME280;28218;53.342;-6.216;2023-09-18T10:43:57;99851.38;;;17.64;100.00
42591;BME280;28218;53.342;-6.216;2023-09-18T10:46:27;99854.88;;;17.65;100.00
42591;BME280;28218;53.342;-6.216;2023-09-18T10:48:56;99852.06;;;17.71;100.00
42591;BME280;28218;53.342;-6.216;2023-09-18T10:51:25;99864.56;;;17.71;100.00
42591;BME280;28218;53.342;-6.216;2023-09-18T10:53:56;99851.81;;;17.73;100.00
42591;BME280;28218;53.342;-6.216;2023-09-18T10:56:25;99838.84;;;17.88;100.00
42591;BME280;28218;53.342;-6.216;2023-09-18T10:59:00;99831.03;;;17.98;100.00
42591;BME280;28218;53.342;-6.216;2023-09-18T11:01:30;99860.09;;;18.00;100.00
42591;BME280;28218;53.342;-6.216;2023-09-18T11:03:59;99889.69;;;17.98;100.00
42591;BME280;28218;53.342;-6.216;2023-09-18T11:06:29;99877.97;;;17.99;100.00
42591;BME280;28218;53.342;-6.216;2023-09-18T11:09:01;99887.31;;;18.02;100.00
42591;BME280;28218;53.342;-6.216;2023-09-18T11:11:32;99898.31;;;18.05;100.00
42591;BME280;28218;53.342;-6.216;2023-09-18T11:14:10;99922.81;;;18.02;100.00
42591;BME280;28218;53.342;-6.216;2023-09-18T11:16:39;99918.50;;;18.01;100.00
42591;BME280;28218;53.342;-6.216;2023-09-18T11:19:09;99916.53;;;17.97;100.00
42591;BME280;28218;53.342;-6.216;2023-09-18T11:21:38;99924.22;;;17.81;100.00
42591;BME280;28218;53.342;-6.216;2023-09-18T11:24:09;99922.97;;;17.84;100.00
42591;BME280;28218;53.342;-6.216;2023-09-18T11:26:45;99927.09;;;17.92;100.00
42591;BME280;28218;53.342;-6.216;2023-09-18T11:29:17;99940.78;;;17.95;100.00
42591;BME280;28218;53.342;-6.216;2023-09-18T11:31:47;99947.38;;;18.04;100.00
42591;BME280;28218;53.342;-6.216;2023-09-18T11:34:21;99952.78;;;18.21;100.00
42591;BME280;28218;53.342;-6.216;2023-09-18T11:36:50;99950.88;;;18.33;100.00
42591;BME280;28218;53.342;-6.216;2023-09-18T11:39:36;99957.69;;;18.41;100.00
42591;BME280;28218;53.342;-6.216;2023-09-18T11:42:12;99967.81;;;18.56;100.00
42591;BME280;28218;53.342;-6.216;2023-09-18T11:44:42;99964.44;;;18.60;100.00
42591;BME280;28218;53.342;-6.216;2023-09-18T11:47:15;99965.94;;;18.68;100.00
42591;BME280;28218;53.342;-6.216;2023-09-18T11:49:52;99982.28;;;18.72;100.00
42591;BME280;28218;53.342;-6.216;2023-09-18T11:52:26;99983.09;;;18.72;100.00
42591;BME280;28218;53.342;-6.216;2023-09-18T11:54:57;99990.88;;;18.74;100.00
42591;BME280;28218;53.342;-6.216;2023-09-18T11:57:26;99986.84;;;18.88;100.00
42591;BME280;28218;53.342;-6.216;2023-09-18T11:59:57;99992.53;;;18.92;100.00
42591;BME280;28218;53.342;-6.216;2023-09-18T12:02:38;100016.78;;;18.90;100.00
42591;BME280;28218;53.342;-6.216;2023-09-18T12:05:10;100012.09;;;18.97;100.00
42591;BME280;28218;53.342;-6.216;2023-09-18T12:07:40;100017.03;;;19.05;100.00
42591;BME280;28218;53.342;-6.216;2023-09-18T12:10:12;100018.41;;;19.08;100.00
42591;BME280;28218;53.342;-6.216;2023-09-18T12:12:42;100021.00;;;19.03;100.00
42591;BME280;28218;53.342;-6.216;2023-09-18T12:15:12;100021.31;;;18.89;100.00
42591;BME280;28218;53.342;-6.216;2023-09-18T12:17:42;100017.91;;;18.77;100.00
42591;BME280;28218;53.342;-6.216;2023-09-18T12:20:15;100036.25;;;18.74;100.00
42591;BME280;28218;53.342;-6.216;2023-09-18T12:22:47;100036.56;;;18.77;100.00
42591;BME280;28218;53.342;-6.216;2023-09-18T12:25:16;100024.50;;;18.63;100.00
42591;BME280;28218;53.342;-6.216;2023-09-18T12:27:45;100024.56;;;18.51;100.00
42591;BME280;28218;53.342;-6.216;2023-09-18T12:30:15;100021.72;;;18.29;100.00
42591;BME280;28218;53.342;-6.216;2023-09-18T12:32:48;100011.91;;;18.18;100.00
42591;BME280;28218;53.342;-6.216;2023-09-18T12:35:17;100022.00;;;18.04;100.00
42591;BME280;28218;53.342;-6.216;2023-09-18T12:37:46;100022.84;;;17.93;100.00
42591;BME280;28218;53.342;-6.216;2023-09-18T12:40:22;100046.78;;;17.58;100.00
42591;BME280;28218;53.342;-6.216;2023-09-18T12:42:51;100023.97;;;17.50;100.00
42591;BME280;28218;53.342;-6.216;2023-09-18T12:45:22;100023.50;;;17.53;100.00
42591;BME280;28218;53.342;-6.216;2023-09-18T12:47:50;99997.34;;;17.50;100.00
42591;BME280;28218;53.342;-6.216;2023-09-18T12:50:19;99995.34;;;17.57;100.00
42591;BME280;28218;53.342;-6.216;2023-09-18T12:52:47;99970.09;;;17.72;100.00
42591;BME280;28218;53.342;-6.216;2023-09-18T12:55:22;99927.84;;;17.75;100.00